Time;durP1;ratioP1;P1;durP2;ratioP2;P2;SDS_P1;SDS_P2;PMS_P1;PMS_P2;Temp;Humidity;BMP_temperature;BMP_pressure;BME280_temperature;BME280_humidity;BME280_pressure;Samples;Min_cycle;Max_cycle;Signal;HPM_P1;HPM_P2
2022/03/04 00:01:15;;;;;;;10.52;6.75;;;;;;;-0.91;89.23;61905.75;5065320;28;20197;-77
2022/03/04 00:03:42;;;;;;;11.93;8.05;;;;;;;-0.85;88.94;61909.94;5060814;28;20304;-76
2022/03/04 00:06:09;;;;;;;12.30;7.53;;;;;;;-0.84;88.60;61912.94;5063839;28;20197;-77
2022/03/04 00:08:38;;;;;;;16.33;8.07;;;;;;;-0.75;88.18;61922.16;5063258;28;20235;-77
2022/03/04 00:11:04;;;;;;;7.00;5.45;;;;;;;-0.71;87.41;61926.75;5062841;28;20445;-77
2022/03/04 00:13:32;;;;;;;9.52;5.57;;;;;;;-0.79;87.54;61923.03;5060515;28;20537;-77
2022/03/04 00:15:59;;;;;;;7.38;5.85;;;;;;;-0.80;87.66;61917.53;5063409;28;20243;-76
2022/03/04 00:18:27;;;;;;;6.75;5.20;;;;;;;-0.83;87.95;61913.97;5063067;28;20457;-76
2022/03/04 00:20:54;;;;;;;12.50;7.03;;;;;;;-0.86;88.47;61913.88;5063292;28;20197;-75
2022/03/04 00:23:21;;;;;;;6.43;5.45;;;;;;;-0.92;88.68;61900.25;5062390;28;20217;-77
2022/03/04 00:25:50;;;;;;;8.52;4.80;;;;;;;-0.91;88.41;61901.28;5063391;28;20459;-75
2022/03/04 00:28:17;;;;;;;8.85;5.55;;;;;;;-0.85;88.36;61909.94;5063433;28;20235;-76
2022/03/04 00:30:43;;;;;;;9.77;5.45;;;;;;;-0.90;88.91;61907.31;5049888;28;20216;-76
2022/03/04 00:33:10;;;;;;;7.30;4.90;;;;;;;-0.94;89.61;61905.19;5048437;28;20222;-76
2022/03/04 00:35:37;;;;;;;7.03;5.15;;;;;;;-0.95;89.86;61904.16;5043652;28;20213;-76
2022/03/04 00:38:04;;;;;;;7.72;5.35;;;;;;;-0.95;89.59;61899.19;5043216;28;20275;-75
2022/03/04 00:40:31;;;;;;;7.53;5.95;;;;;;;-0.97;89.92;61900.16;5043714;28;20198;-76
2022/03/04 00:43:00;;;;;;;7.93;4.88;;;;;;;-1.09;90.79;61889.84;5050856;28;20612;-76
2022/03/04 00:45:27;;;;;;;9.63;6.75;;;;;;;-1.03;90.83;61890.97;5047116;28;20229;-76
2022/03/04 00:47:53;;;;;;;8.75;6.63;;;;;;;-1.01;89.79;61895.53;5050140;28;20248;-75
2022/03/04 00:50:20;;;;;;;9.75;6.30;;;;;;;-1.02;89.54;61897.00;5051614;28;20257;-76
2022/03/04 00:52:47;;;;;;;8.85;5.25;;;;;;;-1.03;89.98;61894.00;5066510;28;20290;-76
2022/03/04 00:55:14;;;;;;;6.28;4.70;;;;;;;-1.11;90.67;61885.81;5068430;28;20220;-75
2022/03/04 00:57:41;;;;;;;8.38;5.47;;;;;;;-1.13;90.87;61881.25;5071531;28;20221;-77
2022/03/04 01:00:10;;;;;;;7.65;4.60;;;;;;;-1.13;91.13;61883.75;5068177;28;20209;-76
2022/03/04 01:02:37;;;;;;;5.68;5.07;;;;;;;-1.11;91.27;61890.28;5065736;28;20412;-77
2022/03/04 01:05:05;;;;;;;6.38;5.05;;;;;;;-1.10;91.20;61889.31;5052432;28;20268;-76
2022/03/04 01:07:32;;;;;;;7.30;5.65;;;;;;;-1.10;91.65;61886.31;5061309;28;20244;-77
2022/03/04 01:09:59;;;;;;;6.35;5.03;;;;;;;-1.10;91.22;61888.81;5065273;28;20209;-77
2022/03/04 01:12:26;;;;;;;7.57;4.90;;;;;;;-1.06;91.43;61892.91;5055005;28;20483;-76
2022/03/04 01:14:54;;;;;;;8.93;6.10;;;;;;;-1.04;90.93;61895.47;5062342;28;20209;-77
2022/03/04 01:17:23;;;;;;;9.60;7.50;;;;;;;-1.10;91.46;61886.81;5046003;28;20555;-77
2022/03/04 01:19:49;;;;;;;9.73;5.93;;;;;;;-1.13;91.79;61886.25;5048199;28;20209;-77
2022/03/04 01:22:16;;;;;;;8.55;6.22;;;;;;;-1.09;92.12;61892.34;5066491;28;20296;-77
2022/03/04 01:24:43;;;;;;;12.95;6.65;;;;;;;-1.26;92.19;61870.97;5064858;28;20236;-77
2022/03/04 01:27:10;;;;;;;10.02;6.93;;;;;;;-1.22;92.47;61877.03;5057672;28;20268;-77
2022/03/04 01:29:37;;;;;;;8.55;6.95;;;;;;;-1.21;92.55;61878.56;5060615;28;20247;-77
2022/03/04 01:32:04;;;;;;;12.60;6.55;;;;;;;-1.21;92.24;61876.06;5065385;28;20229;-77
2022/03/04 01:34:32;;;;;;;8.00;6.50;;;;;;;-1.10;92.25;61883.81;5065946;28;20227;-77
2022/03/04 01:36:59;;;;;;;12.25;7.10;;;;;;;-1.17;92.07;61880.19;5066581;28;20262;-77
2022/03/04 01:39:26;;;;;;;10.15;7.43;;;;;;;-1.17;92.30;61882.16;5063570;28;20399;-77
2022/03/04 01:41:53;;;;;;;19.48;8.52;;;;;;;-1.12;91.94;61889.78;5059318;28;20546;-77
2022/03/04 01:44:20;;;;;;;12.75;8.23;;;;;;;-1.29;90.77;61867.91;5054361;28;20263;-77
2022/03/04 01:46:47;;;;;;;10.52;7.88;;;;;;;-1.06;90.89;61885.41;5065763;28;20217;-77
2022/03/04 01:49:14;;;;;;;13.60;7.20;;;;;;;-1.03;91.00;61899.00;5065665;28;20208;-77
2022/03/04 01:51:43;;;;;;;10.02;6.53;;;;;;;-1.04;91.19;61892.47;5065657;28;20232;-77
2022/03/04 01:54:10;;;;;;;12.10;6.05;;;;;;;-1.11;90.89;61888.31;5051672;28;20288;-76
2022/03/04 01:56:37;;;;;;;5.97;5.38;;;;;;;-1.04;90.83;61894.94;5065108;28;20218;-77
2022/03/04 01:59:04;;;;;;;6.03;5.38;;;;;;;-1.05;91.09;61891.44;5063027;28;20424;-76
2022/03/04 02:01:32;;;;;;;5.88;4.90;;;;;;;-1.06;91.18;61893.41;5048901;28;20468;-77
2022/03/04 02:03:59;;;;;;;7.88;4.82;;;;;;;-1.11;91.85;61892.78;5053328;28;20197;-76
2022/03/04 02:06:26;;;;;;;8.38;5.88;;;;;;;-1.07;91.20;61894.38;5059560;28;20208;-76
2022/03/04 02:08:55;;;;;;;9.25;5.53;;;;;;;-1.11;91.22;61895.78;5063724;28;20197;-77
2022/03/04 02:11:22;;;;;;;7.13;5.85;;;;;;;-1.05;91.64;61894.44;5065063;28;20205;-76
2022/03/04 02:13:48;;;;;;;8.63;5.85;;;;;;;-1.03;91.92;61895.97;5065492;28;20494;-78
2022/03/04 02:16:22;;;;;;;8.88;5.93;;;;;;;-1.11;91.91;61883.31;5056341;28;20202;-79
2022/03/04 02:18:49;;;;;;;7.32;5.75;;;;;;;-1.03;91.37;61895.97;5062096;28;20221;-77
2022/03/04 02:21:20;;;;;;;12.10;7.68;;;;;;;-1.07;90.81;61891.88;5065967;28;20246;-77
2022/03/04 02:23:48;;;;;;;10.07;7.00;;;;;;;-1.00;91.15;61894.56;5065390;28;20204;-78
2022/03/04 02:26:15;;;;;;;17.25;8.38;;;;;;;-0.99;91.08;61900.59;5057662;28;20300;-77
2022/03/04 02:28:44;;;;;;;17.70;7.70;;;;;;;-0.89;90.67;61907.81;5065499;28;20276;-77
2022/03/04 02:31:15;;;;;;;14.73;6.97;;;;;;;-0.89;90.38;61908.31;5052912;28;20205;-77
2022/03/04 02:33:42;;;;;;;11.73;7.40;;;;;;;-0.86;90.01;61916.38;5063857;28;20201;-77
2022/03/04 02:36:09;;;;;;;13.77;9.15;;;;;;;-0.91;90.63;61905.75;5063601;28;20221;-77
2022/03/04 02:38:36;;;;;;;14.55;8.27;;;;;;;-0.92;90.42;61905.25;5046177;28;20205;-78
2022/03/04 02:41:05;;;;;;;10.68;6.55;;;;;;;-1.17;92.07;61885.16;5046589;28;20198;-77
2022/03/04 02:43:33;;;;;;;10.82;6.30;;;;;;;-1.04;92.46;61892.97;5057404;28;20251;-76
2022/03/04 02:45:59;;;;;;;9.57;6.65;;;;;;;-1.02;92.07;61894.50;5066509;28;20241;-77
2022/03/04 02:48:26;;;;;;;10.98;7.28;;;;;;;-1.11;92.72;61890.81;5055073;28;20270;-77
2022/03/04 02:50:54;;;;;;;10.65;7.03;;;;;;;-1.04;92.69;61889.97;5067472;28;20236;-77
2022/03/04 02:53:20;;;;;;;10.70;6.20;;;;;;;-1.07;92.57;61884.91;5067101;28;20233;-77
2022/03/04 02:55:47;;;;;;;9.40;6.13;;;;;;;-1.17;92.62;61881.66;5062227;28;20201;-77
2022/03/04 02:58:15;;;;;;;13.50;7.43;;;;;;;-1.16;93.06;61883.69;5069082;28;20229;-77
2022/03/04 03:00:43;;;;;;;10.00;6.80;;;;;;;-1.20;93.38;61879.59;5070266;28;20201;-76
2022/03/04 03:03:09;;;;;;;8.50;5.72;;;;;;;-1.13;93.19;61883.25;5059174;28;20214;-77
2022/03/04 03:05:36;;;;;;;7.85;6.55;;;;;;;-1.06;92.52;61892.91;5061179;28;20605;-77
2022/03/04 03:08:03;;;;;;;10.38;6.97;;;;;;;-1.07;93.10;61892.38;5058367;28;20233;-77
2022/03/04 03:10:31;;;;;;;9.93;7.00;;;;;;;-1.12;93.35;61886.78;5064290;28;20441;-77
2022/03/04 03:12:58;;;;;;;13.88;7.30;;;;;;;-1.07;93.46;61889.88;5064339;28;20252;-76
2022/03/04 03:15:27;;;;;;;10.93;7.65;;;;;;;-1.09;93.46;61892.34;5062049;28;20197;-77
2022/03/04 03:17:54;;;;;;;9.85;7.32;;;;;;;-1.05;92.60;61889.44;5065246;28;20240;-77
2022/03/04 03:20:21;;;;;;;13.85;8.48;;;;;;;-1.12;92.79;61884.28;5051972;28;20208;-78
2022/03/04 03:22:48;;;;;;;9.95;7.70;;;;;;;-1.10;93.38;61886.81;5066731;28;20405;-78
2022/03/04 03:25:15;;;;;;;13.00;8.02;;;;;;;-1.16;93.46;61883.19;5063537;28;20237;-78
2022/03/04 03:27:42;;;;;;;12.75;8.18;;;;;;;-1.17;93.52;61887.66;5062939;28;20225;-77
2022/03/04 03:30:11;;;;;;;14.18;8.63;;;;;;;-1.13;93.28;61885.75;5056229;28;20303;-77
2022/03/04 03:32:40;;;;;;;10.20;7.65;;;;;;;-1.04;93.15;61892.47;5066358;28;20534;-76
2022/03/04 03:35:09;;;;;;;14.63;8.60;;;;;;;-1.02;93.16;61892.00;5062011;28;20193;-76
2022/03/04 03:37:36;;;;;;;15.38;8.50;;;;;;;-1.04;92.93;61894.94;5074178;28;20236;-76
2022/03/04 03:40:04;;;;;;;9.40;7.32;;;;;;;-1.03;93.17;61893.47;5054193;28;20229;-77
2022/03/04 03:42:31;;;;;;;15.23;8.18;;;;;;;-1.04;93.30;61889.97;5053373;28;20237;-77
2022/03/04 03:44:57;;;;;;;11.38;8.73;;;;;;;-1.07;93.46;61889.41;5063018;28;20656;-77
2022/03/04 03:47:24;;;;;;;10.60;7.82;;;;;;;-1.12;93.60;61884.78;5064954;28;20224;-77
2022/03/04 03:49:53;;;;;;;13.93;8.32;;;;;;;-1.16;93.63;61878.69;5050433;28;20379;-77
2022/03/04 03:52:19;;;;;;;12.45;8.73;;;;;;;-1.12;93.53;61884.78;5063495;28;20237;-77
2022/03/04 03:54:46;;;;;;;15.93;8.90;;;;;;;-1.19;93.72;61877.59;5054277;28;20514;-76
2022/03/04 03:57:13;;;;;;;15.25;8.52;;;;;;;-1.24;94.22;61872.50;5063448;28;20548;-77
2022/03/04 03:59:40;;;;;;;11.98;8.27;;;;;;;-1.27;94.57;61871.91;5063446;28;20217;-76
2022/03/04 04:02:07;;;;;;;11.75;7.43;;;;;;;-1.55;96.04;61838.28;5062205;28;20557;-76
2022/03/04 04:04:35;;;;;;;11.15;8.13;;;;;;;-1.48;96.21;61850.94;5054537;28;20201;-77
2022/03/04 04:07:05;;;;;;;15.43;8.15;;;;;;;-1.45;95.92;61851.00;5060525;28;20466;-77
2022/03/04 04:09:32;;;;;;;14.10;9.20;;;;;;;-1.49;96.57;61844.94;5063786;28;20212;-76
2022/03/04 04:11:59;;;;;;;9.13;7.72;;;;;;;-1.54;96.76;61842.31;5063485;28;20391;-76
2022/03/04 04:14:26;;;;;;;15.65;8.75;;;;;;;-1.49;96.47;61849.94;5053446;28;20486;-75
2022/03/04 04:16:53;;;;;;;16.40;9.82;;;;;;;-1.50;96.53;61850.91;5043180;28;20226;-76
2022/03/04 04:19:21;;;;;;;11.52;8.93;;;;;;;-1.49;96.78;61852.44;5052619;28;20280;-76
2022/03/04 04:21:48;;;;;;;16.05;9.88;;;;;;;-1.48;97.14;61850.44;5050229;28;20468;-76
2022/03/04 04:24:16;;;;;;;17.42;8.85;;;;;;;-1.48;96.79;61850.44;5062674;28;20223;-76
2022/03/04 04:26:44;;;;;;;16.42;9.68;;;;;;;-1.41;96.57;61858.09;5055214;28;20248;-77
2022/03/04 04:29:11;;;;;;;16.88;9.95;;;;;;;-1.41;96.51;61853.13;5060858;28;20201;-76
2022/03/04 04:31:38;;;;;;;16.45;8.55;;;;;;;-1.46;96.53;61849.97;5052062;28;20245;-75
2022/03/04 04:34:05;;;;;;;14.05;8.88;;;;;;;-1.44;96.27;61857.53;5066227;28;20201;-75
2022/03/04 04:36:33;;;;;;;19.90;9.40;;;;;;;-1.51;96.66;61845.38;5062876;28;20229;-76
2022/03/04 04:39:00;;;;;;;16.70;9.07;;;;;;;-1.66;96.75;61832.53;5052705;28;20201;-76
2022/03/04 04:41:28;;;;;;;16.65;10.23;;;;;;;-1.62;96.65;61833.59;5066188;28;20208;-75
2022/03/04 04:43:55;;;;;;;20.70;11.82;;;;;;;-1.61;97.07;61837.13;5063837;28;20193;-76
2022/03/04 04:46:22;;;;;;;15.32;10.63;;;;;;;-1.63;97.56;61843.09;5063510;28;20228;-75
2022/03/04 04:48:49;;;;;;;28.70;14.50;;;;;;;-1.62;97.99;61836.63;5063568;28;20199;-75
2022/03/04 04:51:16;;;;;;;23.50;13.25;;;;;;;-1.63;98.03;61835.59;5066455;28;20522;-74
2022/03/04 04:53:43;;;;;;;22.60;13.63;;;;;;;-1.63;98.31;61835.59;5047923;28;20214;-75
2022/03/04 04:56:10;;;;;;;12.48;9.65;;;;;;;-1.58;98.10;61840.19;5051311;28;20465;-74
2022/03/04 04:58:39;;;;;;;15.07;9.43;;;;;;;-1.54;97.94;61839.31;5056654;28;20205;-73
2022/03/04 05:01:07;;;;;;;13.48;9.30;;;;;;;-1.55;98.01;61843.78;5065862;28;20213;-74
2022/03/04 05:03:34;;;;;;;15.70;9.50;;;;;;;-1.55;97.95;61838.28;5066431;28;20232;-75
2022/03/04 05:06:01;;;;;;;17.33;10.07;;;;;;;-1.51;98.59;61844.88;5066130;28;20237;-74
2022/03/04 05:08:29;;;;;;;16.90;10.70;;;;;;;-1.47;98.49;61851.97;5066668;28;20221;-75
2022/03/04 05:10:56;;;;;;;21.38;10.43;;;;;;;-1.45;98.62;61854.00;5062878;28;20205;-75
2022/03/04 05:13:23;;;;;;;16.40;10.15;;;;;;;-1.41;98.16;61858.09;5057272;28;20225;-75
2022/03/04 05:15:51;;;;;;;13.90;9.98;;;;;;;-1.36;98.03;61863.22;5062190;28;20214;-75
2022/03/04 05:18:18;;;;;;;13.70;8.88;;;;;;;-1.29;97.32;61865.41;5046721;28;20236;-76
2022/03/04 05:20:45;;;;;;;13.48;10.18;;;;;;;-1.27;97.39;61869.94;5058160;28;20206;-74
2022/03/04 05:23:58;;;;;;;13.77;9.20;;;;;;;-1.24;97.24;61875.00;5061655;28;20217;-77
2022/03/04 05:25:59;;;;;;;17.58;10.52;;;;;;;-1.21;97.10;61878.56;5046076;28;20218;-76
2022/03/04 05:28:26;;;;;;;22.95;13.82;;;;;;;-1.28;97.23;61873.91;5047359;28;20385;-77
2022/03/04 05:30:54;;;;;;;16.27;10.95;;;;;;;-1.50;97.92;61848.41;5064275;28;20205;-77
2022/03/04 05:33:21;;;;;;;17.17;11.27;;;;;;;-1.42;97.56;61854.09;5061661;28;20548;-77
2022/03/04 05:35:48;;;;;;;20.45;12.38;;;;;;;-1.42;97.63;61854.59;5046079;28;20507;-76
2022/03/04 05:38:15;;;;;;;15.35;9.73;;;;;;;-1.44;97.73;61852.03;5054412;28;20240;-76
2022/03/04 05:40:42;;;;;;;17.38;11.40;;;;;;;-1.40;98.22;61851.63;5065231;28;20229;-77
2022/03/04 05:43:09;;;;;;;21.58;10.90;;;;;;;-1.31;98.21;61863.34;5064929;28;20225;-77
2022/03/04 05:45:37;;;;;;;17.38;10.85;;;;;;;-1.33;98.49;61863.78;5065491;28;20233;-77
2022/03/04 05:48:06;;;;;;;14.32;10.20;;;;;;;-1.30;98.42;61874.38;5064109;28;20263;-75
2022/03/04 05:50:34;;;;;;;15.55;10.82;;;;;;;-1.22;98.20;61875.06;5064957;28;20200;-76
2022/03/04 05:53:01;;;;;;;12.65;9.52;;;;;;;-1.43;98.36;61858.03;5064304;28;20300;-76
2022/03/04 05:55:28;;;;;;;17.05;11.25;;;;;;;-1.36;99.07;61858.22;5066278;28;20202;-75
2022/03/04 05:57:55;;;;;;;21.70;11.90;;;;;;;-1.20;98.84;61884.59;5064723;28;20460;-76
2022/03/04 06:00:22;;;;;;;21.25;10.85;;;;;;;-1.10;97.84;61894.31;5065996;28;20220;-76
2022/03/04 06:02:49;;;;;;;29.42;13.48;;;;;;;-1.20;97.78;61879.09;5066463;28;20243;-75
2022/03/04 06:05:17;;;;;;;20.67;12.20;;;;;;;-1.05;97.97;61899.44;5068051;28;20198;-75
2022/03/04 06:07:44;;;;;;;21.02;14.07;;;;;;;-1.11;97.42;61888.31;5075190;28;20225;-76
2022/03/04 06:10:11;;;;;;;23.60;14.52;;;;;;;-1.11;97.75;61883.31;5075229;28;20193;-77
2022/03/04 06:12:38;;;;;;;25.83;14.85;;;;;;;-0.85;97.62;61914.94;5070323;28;20264;-76
2022/03/04 06:15:06;;;;;;;23.38;15.40;;;;;;;-0.55;96.91;61945.13;5074902;28;20208;-77
2022/03/04 06:17:33;;;;;;;30.58;16.50;;;;;;;-0.25;96.20;61976.38;5072349;28;20221;-76
2022/03/04 06:20:01;;;;;;;25.33;16.33;;;;;;;-0.26;94.01;61969.84;5068430;28;20540;-77
2022/03/04 06:22:29;;;;;;;28.63;16.23;;;;;;;-0.19;93.58;61982.50;5066114;28;20281;-76
2022/03/04 06:24:56;;;;;;;32.13;17.25;;;;;;;0.15;92.09;62011.84;5067490;28;20268;-76
2022/03/04 06:27:23;;;;;;;31.92;18.42;;;;;;;0.35;90.53;62034.84;5067019;28;20233;-77
2022/03/04 06:29:50;;;;;;;29.85;17.85;;;;;;;0.48;90.07;62050.16;5064916;28;20201;-78
2022/03/04 06:32:18;;;;;;;30.92;18.08;;;;;;;0.52;89.34;62052.25;5067173;28;20284;-78
2022/03/04 06:34:44;;;;;;;26.98;16.80;;;;;;;0.69;88.11;62072.19;5065443;28;20200;-77
2022/03/04 06:37:12;;;;;;;26.08;16.17;;;;;;;0.58;87.40;62057.91;5064830;28;20259;-75
2022/03/04 06:39:40;;;;;;;29.15;17.27;;;;;;;0.72;88.43;62072.78;5063493;28;20205;-77
2022/03/04 06:42:07;;;;;;;30.10;16.30;;;;;;;0.73;87.13;62075.78;5064754;28;20217;-77
2022/03/04 06:44:34;;;;;;;31.77;17.88;;;;;;;0.55;87.14;62049.84;5066188;28;20235;-77
2022/03/04 06:47:01;;;;;;;32.83;18.40;;;;;;;0.86;87.29;62086.63;5056486;28;20602;-76
2022/03/04 06:49:28;;;;;;;36.80;21.15;;;;;;;0.72;88.07;62072.28;5064770;28;20223;-76
2022/03/04 06:51:55;;;;;;;35.47;18.80;;;;;;;0.44;89.23;62046.06;5064673;28;20556;-76
2022/03/04 06:54:21;;;;;;;45.10;22.70;;;;;;;0.75;89.72;62080.34;5064363;28;20544;-75
2022/03/04 06:56:50;;;;;;;49.00;24.27;;;;;;;0.99;89.00;62099.94;5061788;28;20259;-76
2022/03/04 06:59:17;;;;;;;40.28;23.38;;;;;;;0.90;88.80;62090.72;5063132;28;20197;-75
2022/03/04 07:01:44;;;;;;;43.63;24.70;;;;;;;0.98;88.89;62098.94;5063420;28;20509;-76
2022/03/04 07:04:10;;;;;;;59.97;28.40;;;;;;;0.59;91.20;62059.44;5062209;28;20225;-76
2022/03/04 07:06:37;;;;;;;45.30;26.15;;;;;;;0.91;92.22;62092.28;5065645;28;20237;-76
2022/03/04 07:09:04;;;;;;;52.53;27.73;;;;;;;0.76;92.69;62076.88;5062752;28;20247;-76
2022/03/04 07:11:31;;;;;;;59.40;28.88;;;;;;;0.86;93.63;62091.63;5064935;28;20217;-75
2022/03/04 07:13:59;;;;;;;52.60;29.35;;;;;;;1.05;92.60;62111.13;5065028;28;20234;-75
2022/03/04 07:16:26;;;;;;;49.35;28.88;;;;;;;1.11;91.91;62112.25;5068967;28;20215;-77
2022/03/04 07:18:53;;;;;;;51.58;29.55;;;;;;;1.35;90.87;62134.38;5064826;28;20224;-77
2022/03/04 07:21:20;;;;;;;53.78;28.92;;;;;;;1.12;89.47;62115.81;5065799;28;20197;-75
2022/03/04 07:23:47;;;;;;;51.55;29.15;;;;;;;1.05;90.07;62108.63;5064580;28;20259;-75
2022/03/04 07:26:14;;;;;;;51.53;27.58;;;;;;;1.04;90.36;62103.09;5064367;28;20448;-75
2022/03/04 07:28:40;;;;;;;55.83;27.63;;;;;;;1.01;90.88;62105.03;5062405;28;20428;-74
2022/03/04 07:31:09;;;;;;;55.90;29.10;;;;;;;1.15;91.36;62116.88;5064439;28;20197;-76
2022/03/04 07:33:36;;;;;;;57.40;29.63;;;;;;;1.47;89.81;62151.69;5064009;28;20204;-74
2022/03/04 07:36:04;;;;;;;54.60;27.45;;;;;;;1.72;88.97;62177.38;5062244;28;20204;-74
2022/03/04 07:38:31;;;;;;;50.05;28.52;;;;;;;1.58;88.54;62159.97;5064302;28;20245;-73
2022/03/04 07:40:59;;;;;;;60.35;29.55;;;;;;;1.72;88.75;62179.38;5063180;28;20375;-76
2022/03/04 07:43:26;;;;;;;47.50;27.55;;;;;;;1.86;87.32;62193.75;5053218;28;20221;-76
2022/03/04 07:45:53;;;;;;;48.30;28.63;;;;;;;2.25;86.90;62231.78;5064186;28;20423;-77
2022/03/04 07:48:21;;;;;;;49.25;27.73;;;;;;;2.54;84.26;62258.03;5063864;28;20221;-76
2022/03/04 07:50:48;;;;;;;45.10;28.05;;;;;;;2.81;82.17;62286.28;5063247;28;20444;-76
2022/03/04 07:53:15;;;;;;;58.90;27.95;;;;;;;3.19;79.73;62327.34;5064435;28;20432;-77
2022/03/04 07:55:42;;;;;;;55.72;28.65;;;;;;;3.46;78.04;62350.06;5062998;28;20502;-76
2022/03/04 07:58:09;;;;;;;44.90;27.95;;;;;;;3.22;75.66;62327.91;5061882;28;20235;-76
2022/03/04 08:00:37;;;;;;;42.60;24.65;;;;;;;2.84;74.91;62291.88;5062895;28;20259;-76
2022/03/04 08:03:04;;;;;;;36.92;22.33;;;;;;;3.20;74.58;62325.84;5063144;28;20251;-76
2022/03/04 08:05:33;;;;;;;32.75;20.05;;;;;;;3.19;71.44;62324.84;5063867;28;20201;-77
2022/03/04 08:08:01;;;;;;;32.67;18.77;;;;;;;3.25;72.87;62336.03;5061712;28;20244;-77
2022/03/04 08:10:28;;;;;;;33.92;17.40;;;;;;;3.47;74.28;62354.13;5064194;28;20190;-76
2022/03/04 08:12:54;;;;;;;24.58;13.82;;;;;;;3.94;69.73;62404.47;5064627;28;20509;-75
2022/03/04 08:15:21;;;;;;;21.05;13.07;;;;;;;3.98;65.44;62405.53;5064063;28;20253;-76
2022/03/04 08:17:48;;;;;;;17.88;11.82;;;;;;;4.04;62.55;62412.22;5061792;28;20308;-76
2022/03/04 08:20:15;;;;;;;19.27;11.80;;;;;;;4.03;64.19;62415.72;5064672;28;20243;-76
2022/03/04 08:22:44;;;;;;;18.55;12.43;;;;;;;4.21;62.69;62427.19;5064947;28;20221;-77
2022/03/04 08:25:11;;;;;;;16.30;11.70;;;;;;;4.14;62.57;62425.03;5064210;28;20458;-78
2022/03/04 08:27:39;;;;;;;12.82;9.88;;;;;;;3.85;59.60;62392.19;5065909;28;20244;-76
2022/03/04 08:30:08;;;;;;;14.85;10.18;;;;;;;4.00;59.61;62407.59;5064197;28;20221;-77
2022/03/04 08:32:35;;;;;;;14.23;10.40;;;;;;;3.73;59.46;62384.88;5064139;28;20258;-75
2022/03/04 08:35:02;;;;;;;13.73;8.95;;;;;;;3.50;59.57;62356.69;5066979;28;20272;-77
2022/03/04 08:37:29;;;;;;;9.73;8.02;;;;;;;3.35;58.68;62338.75;5074283;28;20221;-77
2022/03/04 08:39:57;;;;;;;13.15;9.23;;;;;;;3.34;59.38;62345.78;5074925;28;20224;-75
2022/03/04 08:42:24;;;;;;;12.52;9.70;;;;;;;3.53;60.69;62360.31;5074969;28;20210;-76
2022/03/04 08:44:52;;;;;;;14.30;9.32;;;;;;;3.76;60.17;62388.47;5067679;28;20197;-76
2022/03/04 08:47:19;;;;;;;19.67;9.75;;;;;;;3.98;60.20;62405.53;5061985;28;20481;-75
2022/03/04 08:49:46;;;;;;;9.80;7.85;;;;;;;3.81;57.35;62388.06;5064025;28;20224;-76
2022/03/04 08:52:13;;;;;;;10.50;8.88;;;;;;;3.84;66.86;62391.66;5064976;28;20229;-76
2022/03/04 08:54:39;;;;;;;12.90;9.60;;;;;;;3.34;61.12;62345.28;5062587;28;20263;-75
2022/03/04 08:57:08;;;;;;;12.43;8.85;;;;;;;3.34;65.02;62343.28;5063344;28;20549;-75
2022/03/04 08:59:35;;;;;;;17.52;10.43;;;;;;;3.43;63.64;62352.03;5058285;28;20236;-76
2022/03/04 09:02:02;;;;;;;19.77;10.65;;;;;;;3.06;63.83;62313.97;5062539;28;20240;-75
2022/03/04 09:04:29;;;;;;;19.30;11.20;;;;;;;3.11;63.10;62322.16;5063885;28;20201;-75
2022/03/04 09:06:56;;;;;;;19.25;11.52;;;;;;;2.89;65.86;62297.03;5063301;28;20251;-75
2022/03/04 09:09:23;;;;;;;19.38;11.07;;;;;;;3.19;65.73;62329.88;5063445;28;20193;-76
2022/03/04 09:11:50;;;;;;;17.40;11.68;;;;;;;2.65;64.34;62271.84;5064369;28;20232;-75
2022/03/04 09:14:19;;;;;;;21.73;10.52;;;;;;;2.76;70.81;62278.63;5067513;28;20193;-75
2022/03/04 09:16:46;;;;;;;21.48;11.38;;;;;;;2.62;65.42;62268.75;5066256;28;20260;-75
2022/03/04 09:19:13;;;;;;;18.25;11.93;;;;;;;2.89;70.95;62297.03;5050092;28;20194;-76
2022/03/04 09:21:40;;;;;;;21.88;11.82;;;;;;;3.15;70.31;62323.75;5059995;28;20573;-75
2022/03/04 09:24:08;;;;;;;18.83;10.77;;;;;;;3.27;68.10;62331.06;5067884;28;20197;-75
2022/03/04 09:26:35;;;;;;;16.33;11.18;;;;;;;3.44;64.89;62350.53;5067413;28;20521;-76
2022/03/04 09:29:02;;;;;;;17.23;10.88;;;;;;;3.38;63.90;62344.88;5068819;28;20438;-75
2022/03/04 09:31:30;;;;;;;19.90;11.82;;;;;;;3.39;66.40;62352.94;5066735;28;20209;-76
2022/03/04 09:33:57;;;;;;;14.05;10.50;;;;;;;3.64;68.57;62370.59;5066377;28;20194;-76
2022/03/04 09:36:24;;;;;;;20.85;11.18;;;;;;;3.71;67.77;62380.81;5067085;28;20194;-77
2022/03/04 09:38:51;;;;;;;19.65;11.43;;;;;;;3.75;64.63;62382.41;5066743;28;20197;-76
2022/03/04 09:41:18;;;;;;;17.45;11.30;;;;;;;3.93;69.50;62402.91;5063234;28;20497;-76
2022/03/04 09:43:45;;;;;;;17.58;12.68;;;;;;;4.18;68.39;62428.63;5067312;28;20259;-77
2022/03/04 09:46:14;;;;;;;20.20;10.52;;;;;;;4.06;63.88;62416.28;5066445;28;20194;-76
2022/03/04 09:48:45;;;;;;;16.67;11.23;;;;;;;3.86;63.54;62393.19;5066278;28;20487;-76
2022/03/04 09:51:12;;;;;;;20.55;12.07;;;;;;;4.13;68.19;62421.50;5064542;28;20194;-76
2022/03/04 09:53:38;;;;;;;18.08;11.95;;;;;;;4.18;65.07;62429.16;5066240;28;20201;-76
2022/03/04 09:56:05;;;;;;;17.27;10.77;;;;;;;4.24;63.02;62434.81;5065005;28;20326;-77
2022/03/04 09:58:33;;;;;;;14.57;10.38;;;;;;;4.05;63.43;62415.78;5065598;28;20229;-78
2022/03/04 10:01:00;;;;;;;14.10;11.02;;;;;;;4.23;62.99;62433.78;5066788;28;20216;-77
2022/03/04 10:03:43;;;;;;;24.80;13.02;;;;;;;4.40;66.40;62451.78;5067053;28;20225;-78
2022/03/04 10:06:12;;;;;;;21.17;10.95;;;;;;;4.41;68.37;62449.78;5065506;28;20212;-78
2022/03/04 10:08:40;;;;;;;20.25;13.07;;;;;;;4.23;64.80;62431.25;5065692;28;20226;-79
2022/03/04 10:11:08;;;;;;;20.15;12.02;;;;;;;4.27;66.98;62438.41;5060025;28;20252;-77
2022/03/04 10:13:47;;;;;;;20.70;12.93;;;;;;;3.89;62.72;62401.31;5063025;28;20212;-77
2022/03/04 10:16:22;;;;;;;20.85;12.32;;;;;;;3.55;64.59;62361.84;5056044;28;20387;-77
2022/03/04 10:19:08;;;;;;;16.35;11.05;;;;;;;3.54;68.23;62360.81;5067669;28;20208;-77
2022/03/04 10:21:51;;;;;;;24.83;13.63;;;;;;;3.30;64.84;62341.69;5066503;28;20217;-76
2022/03/04 10:24:19;;;;;;;21.48;13.40;;;;;;;3.37;66.22;62348.34;5065850;28;20444;-77
2022/03/04 10:26:46;;;;;;;22.67;14.68;;;;;;;3.55;67.27;62364.34;5064008;28;20233;-76
2022/03/04 10:29:21;;;;;;;30.00;15.15;;;;;;;3.70;66.96;62381.78;5061400;28;20197;-77
2022/03/04 10:32:11;;;;;;;24.83;14.82;;;;;;;3.89;68.35;62396.81;5065433;28;20221;-76
2022/03/04 10:34:46;;;;;;;23.48;15.10;;;;;;;4.02;65.58;62415.19;5062814;28;20528;-76
2022/03/04 10:37:17;;;;;;;23.13;13.20;;;;;;;4.07;61.47;62414.81;5061558;28;20220;-76
2022/03/04 10:40:04;;;;;;;18.48;12.48;;;;;;;4.18;66.54;62431.16;5059878;28;20203;-76
2022/03/04 10:42:43;;;;;;;21.52;14.98;;;;;;;4.42;67.18;62453.31;5066967;28;20603;-76
2022/03/04 10:45:11;;;;;;;22.95;13.30;;;;;;;4.64;64.63;62473.97;5068160;28;20212;-76
2022/03/04 10:47:47;;;;;;;20.08;13.70;;;;;;;4.50;62.27;62464.09;5068694;28;20237;-77
2022/03/04 10:50:14;;;;;;;21.65;13.23;;;;;;;4.49;59.86;62458.00;5067980;28;20546;-76
2022/03/04 10:52:56;;;;;;;16.00;12.25;;;;;;;4.77;64.49;62491.88;5065702;28;20552;-76
2022/03/04 10:55:32;;;;;;;24.48;13.68;;;;;;;4.86;58.89;62500.63;5066410;28;20200;-76
2022/03/04 10:58:00;;;;;;;22.85;13.95;;;;;;;4.98;60.00;62510.47;5066383;28;20217;-76
2022/03/04 11:00:29;;;;;;;20.75;13.60;;;;;;;5.16;61.67;62523.97;5065105;28;20490;-76
2022/03/04 11:02:56;;;;;;;20.85;13.18;;;;;;;5.46;61.05;62560.41;5060960;28;20218;-75
2022/03/04 11:05:24;;;;;;;22.75;14.57;;;;;;;5.54;56.76;62576.22;5074158;28;20209;-75
2022/03/04 11:07:53;;;;;;;26.88;12.85;;;;;;;5.54;57.02;62566.13;5072040;28;20271;-76
2022/03/04 11:10:21;;;;;;;22.23;14.00;;;;;;;5.47;58.22;62563.47;5075279;28;20197;-75
2022/03/04 11:12:53;;;;;;;24.75;13.50;;;;;;;5.52;58.46;62561.53;5075778;28;20267;-76
2022/03/04 11:15:21;;;;;;;20.08;13.80;;;;;;;5.37;59.45;62548.63;5065971;28;20217;-75
2022/03/04 11:17:49;;;;;;;23.05;14.88;;;;;;;5.02;57.90;62517.13;5046574;28;20221;-74
2022/03/04 11:20:18;;;;;;;25.83;13.75;;;;;;;5.13;60.73;62523.91;5056747;28;20467;-76
2022/03/04 11:22:47;;;;;;;22.90;13.63;;;;;;;5.08;58.38;62520.75;5065999;28;20217;-76
2022/03/04 11:25:16;;;;;;;23.20;13.18;;;;;;;5.11;61.46;62521.84;5063534;28;20205;-76
2022/03/04 11:27:46;;;;;;;25.92;14.57;;;;;;;5.07;57.12;62514.69;5064737;28;20244;-76
2022/03/04 11:30:34;;;;;;;19.27;13.82;;;;;;;4.89;59.82;62501.72;5065414;28;20190;-75